Map

Track Data

SID SEASON NUMBER BASIN SUBBASIN NAME ISO_TIME NATURE LAT LON WMO_WIND WMO_PRES WMO_AGENCY TRACK_TYPE DIST2LAND LANDFALL IFLAG USA_AGENCY USA_ATCF_ID USA_LAT USA_LON USA_RECORD USA_STATUS USA_WIND USA_PRES USA_SSHS USA_R34_NE USA_R34_SE USA_R34_SW USA_R34_NW USA_R50_NE USA_R50_SE USA_R50_SW USA_R50_NW USA_R64_NE USA_R64_SE USA_R64_SW USA_R64_NW USA_POCI USA_ROCI USA_RMW USA_EYE TOKYO_LAT TOKYO_LON TOKYO_GRADE TOKYO_WIND TOKYO_PRES TOKYO_R50_DIR TOKYO_R50_LONG TOKYO_R50_SHORT TOKYO_R30_DIR TOKYO_R30_LONG TOKYO_R30_SHORT TOKYO_LAND CMA_LAT CMA_LON CMA_CAT CMA_WIND CMA_PRES HKO_LAT HKO_LON HKO_CAT HKO_WIND HKO_PRES NEWDELHI_LAT NEWDELHI_LON NEWDELHI_GRADE NEWDELHI_WIND NEWDELHI_PRES NEWDELHI_CI NEWDELHI_DP NEWDELHI_POCI REUNION_LAT REUNION_LON REUNION_TYPE REUNION_WIND REUNION_PRES REUNION_TNUM REUNION_CI REUNION_RMW REUNION_R34_NE REUNION_R34_SE REUNION_R34_SW REUNION_R34_NW REUNION_R50_NE REUNION_R50_SE REUNION_R50_SW REUNION_R50_NW REUNION_R64_NE REUNION_R64_SE REUNION_R64_SW REUNION_R64_NW BOM_LAT BOM_LON BOM_TYPE BOM_WIND BOM_PRES BOM_TNUM BOM_CI BOM_RMW BOM_R34_NE BOM_R34_SE BOM_R34_SW BOM_R34_NW BOM_R50_NE BOM_R50_SE BOM_R50_SW BOM_R50_NW BOM_R64_NE BOM_R64_SE BOM_R64_SW BOM_R64_NW BOM_ROCI BOM_POCI BOM_EYE BOM_POS_METHOD BOM_PRES_METHOD NADI_LAT NADI_LON NADI_CAT NADI_WIND NADI_PRES WELLINGTON_LAT WELLINGTON_LON WELLINGTON_WIND WELLINGTON_PRES DS824_LAT DS824_LON DS824_STAGE DS824_WIND DS824_PRES TD9636_LAT TD9636_LON TD9636_STAGE TD9636_WIND TD9636_PRES TD9635_LAT TD9635_LON TD9635_WIND TD9635_PRES TD9635_ROCI NEUMANN_LAT NEUMANN_LON NEUMANN_CLASS NEUMANN_WIND NEUMANN_PRES MLC_LAT MLC_LON MLC_CLASS MLC_WIND MLC_PRES USA_GUST BOM_GUST BOM_GUST_PER REUNION_GUST REUNION_GUST_PER USA_SEAHGT USA_SEARAD_NE USA_SEARAD_SE USA_SEARAD_SW USA_SEARAD_NW STORM_SPEED STORM_DIR
1946317N14142 1946 68 WP MM DIANNE 1946-11-13 00:00:00 TS 13.7000 141.900 main 1754 1744 O________OOO__ jtwc_wp WP151946 13.7000 141.900 50 0 13.7000 141.900 TC 50 13.7000 141.900 2 50 13.7000 141.900 50 998 360 7 286
1946317N14142 1946 68 WP MM DIANNE 1946-11-13 03:00:00 TS 13.7984 141.556 main 1744 1704 P________PPP__ WP151946 13.7925 141.570 50 0 13.7925 141.570 TC 50 13.8159 141.516 2 51 13.7925 141.570 50 997 300 7 287
1946317N14142 1946 68 WP MM DIANNE 1946-11-13 06:00:00 TS 13.9088 141.181 main 1704 1663 O________OPO__ jtwc_wp WP151946 13.9000 141.200 50 0 13.9000 141.200 TC 50 13.9352 141.125 2 52 13.9000 141.200 50 996 240 8 287
1946317N14142 1946 68 WP MM DIANNE 1946-11-13 09:00:00 TS 14.0417 140.754 main 1663 1614 P________PPP__ WP151946 14.0350 140.765 52 0 14.0350 140.765 TC 52 14.0619 140.722 2 53 14.0350 140.765 52 994 300 9 289
1946317N14142 1946 68 WP MM DIANNE 1946-11-13 12:00:00 TS 14.2000 140.300 main 1614 1574 O________OOO__ jtwc_wp WP151946 14.2000 140.300 55 0 14.2000 140.300 TC 55 14.2000 140.300 2 55 14.2000 140.300 55 993 360 9 292
1946317N14142 1946 68 WP MM DIANNE 1946-11-13 15:00:00 TS 14.3934 139.846 main 1566 1527 P________PPP__ WP151946 14.4075 139.843 57 0 14.4075 139.843 TC 57 14.3510 139.858 2 57 14.4075 139.843 57 991 360 9 293
1946317N14142 1946 68 WP MM DIANNE 1946-11-13 18:00:00 TS 14.5769 139.403 main 1527 1487 O________OPO__ jtwc_wp WP151946 14.6000 139.400 60 0 14.6000 139.400 TC 60 14.5077 139.413 2 60 14.6000 139.400 60 990 360 9 291
1946317N14142 1946 68 WP MM DIANNE 1946-11-13 21:00:00 TS 14.7069 138.985 main 1487 1446 P________PPP__ WP151946 14.7224 138.985 62 0 14.7224 138.985 TC 62 14.6605 138.986 2 62 14.7224 138.985 62 989 360 8 286
1946317N14142 1946 68 WP MM DIANNE 1946-11-14 00:00:00 TS 14.8000 138.600 main 1446 1414 O________OOO__ jtwc_wp WP151946 14.8000 138.600 65 1 14.8000 138.600 TC 65 14.8000 138.600 3 65 14.8000 138.600 65 988 360 7 282
1946317N14142 1946 68 WP MM DIANNE 1946-11-14 03:00:00 TS 14.8573 138.231 main 1406 1374 P________PPP__ WP151946 14.8425 138.220 67 1 14.8425 138.220 TC 67 14.9019 138.265 3 66 14.8425 138.220 67 986 360 7 281
1946317N14142 1946 68 WP MM DIANNE 1946-11-14 06:00:00 TS 14.9230 137.919 main 1374 1355 O________OPO__ jtwc_wp WP151946 14.9000 137.900 70 1 14.9000 137.900 TC 70 14.9922 137.975 3 67 14.9000 137.900 70 985 360 6 289
1946317N14142 1946 68 WP MM DIANNE 1946-11-14 09:00:00 TS 15.0421 137.689 main 1355 1339 P________PPP__ WP151946 15.0274 137.677 70 1 15.0274 137.677 TC 70 15.0864 137.722 3 68 15.0274 137.677 70 984 330 5 304
1946317N14142 1946 68 WP MM DIANNE 1946-11-14 12:00:00 TS 15.2000 137.500 main 1339 1321 O________OOO__ jtwc_wp WP151946 15.2000 137.500 70 1 15.2000 137.500 TC 70 15.2000 137.500 4 70 15.2000 137.500 70 983 300 5 313
1946317N14142 1946 68 WP MM DIANNE 1946-11-14 15:00:00 TS 15.3903 137.296 main 1323 1306 P________PPP__ WP151946 15.4000 137.293 72 1 15.4000 137.293 TC 72 15.3613 137.308 4 72 15.4000 137.293 72 981 300 5 316
1946317N14142 1946 68 WP MM DIANNE 1946-11-14 18:00:00 TS 15.5855 137.111 main 1308 1301 O________OPO__ jtwc_wp WP151946 15.6000 137.100 75 1 15.6000 137.100 TC 75 15.5422 137.142 4 75 15.6000 137.100 75 980 300 5 318
1946317N14142 1946 68 WP MM DIANNE 1946-11-14 21:00:00 TS 15.7498 136.963 main 1301 1287 P________PPP__ WP151946 15.7574 136.957 77 1 15.7574 136.957 TC 77 15.7269 136.980 4 77 15.7574 136.957 77 979 360 4 317
1946317N14142 1946 68 WP MM DIANNE 1946-11-15 00:00:00 TS 15.9000 136.800 main 1287 1270 O________OOO__ jtwc_wp WP151946 15.9000 136.800 80 1 15.9000 136.800 TC 80 15.9000 136.800 4 80 15.9000 136.800 80 978 420 5 309
1946317N14142 1946 68 WP MM DIANNE 1946-11-15 03:00:00 TS 16.0590 136.574 main 1274 1247 P________PPP__ WP151946 16.0575 136.565 80 1 16.0575 136.565 TC 80 16.0635 136.600 4 81 16.0575 136.565 80 976 420 6 303
1946317N14142 1946 68 WP MM DIANNE 1946-11-15 06:00:00 TS 16.2024 136.319 main 1247 1231 O________OPO__ jtwc_wp WP151946 16.2000 136.300 80 1 16.2000 136.300 TC 80 16.2096 136.375 4 82 16.2000 136.300 80 975 420 5 299
1946317N14142 1946 68 WP MM DIANNE 1946-11-15 09:00:00 TS 16.3232 136.083 main 1231 1205 P________PPP__ WP151946 16.3224 136.073 82 1 16.3224 136.073 TC 82 16.3259 136.113 4 83 16.3224 136.073 82 976 360 5 292
1946317N14142 1946 68 WP MM DIANNE 1946-11-15 12:00:00 TS 16.4000 135.800 main 1205 1175 O________OOO__ jtwc_wp WP151946 16.4000 135.800 85 2 16.4000 135.800 TC 85 16.4000 135.800 4 85 16.4000 135.800 85 977 300 6 278
1946317N14142 1946 68 WP MM DIANNE 1946-11-15 15:00:00 TS 16.4153 135.430 main 1165 1126 P________PPP__ WP151946 16.4225 135.430 87 2 16.4225 135.430 TC 87 16.3939 135.429 4 87 16.4225 135.430 87 973 300 8 269
1946317N14142 1946 68 WP MM DIANNE 1946-11-15 18:00:00 TS 16.3875 135.002 main 1126 1083 O________OPO__ jtwc_wp WP151946 16.4000 135.000 90 2 16.4000 135.000 TC 90 16.3501 135.009 4 90 16.4000 135.000 90 970 300 8 264
1946317N14142 1946 68 WP MM DIANNE 1946-11-15 21:00:00 TS 16.3334 134.564 main 1083 1034 P________PPP__ WP151946 16.3424 134.565 92 2 16.3424 134.565 TC 92 16.3063 134.560 4 92 16.3424 134.565 92 969 330 9 264
1946317N14142 1946 68 WP MM DIANNE 1946-11-16 00:00:00 TS 16.3000 134.100 main 1034 986 O________OOO__ jtwc_wp WP151946 16.3000 134.100 95 2 16.3000 134.100 TC 95 16.3000 134.100 4 95 16.3000 134.100 95 968 360 9 269
1946317N14142 1946 68 WP MM DIANNE 1946-11-16 03:00:00 TS 16.3198 133.596 main 986 944 P________PPP__ WP151946 16.3125 133.592 95 2 16.3125 133.592 TC 95 16.3417 133.605 4 93 16.3125 133.592 95 968 360 10 276
1946317N14142 1946 68 WP MM DIANNE 1946-11-16 06:00:00 TS 16.4077 133.103 main 944 912 O________OPO__ jtwc_wp WP151946 16.4000 133.100 95 2 16.4000 133.100 TC 95 16.4307 133.110 4 92 16.4000 133.100 95 968 360 9 285
1946317N14142 1946 68 WP MM DIANNE 1946-11-16 09:00:00 TS 16.5667 132.657 main 918 895 P________PPP__ WP151946 16.5625 132.655 92 2 16.5625 132.655 TC 92 16.5792 132.661 4 91 16.5625 132.655 92 968 330 9 297
1946317N14142 1946 68 WP MM DIANNE 1946-11-16 12:00:00 TS 16.8000 132.300 main 895 882 O________OOO__ jtwc_wp WP151946 16.8000 132.300 90 2 16.8000 132.300 TC 90 16.8000 132.300 4 90 16.8000 132.300 90 969 300 8 309
1946317N14142 1946 68 WP MM DIANNE 1946-11-16 15:00:00 TS 17.0662 132.023 main 888 884 P________PPP__ WP151946 17.0624 132.047 90 2 17.0624 132.047 TC 90 17.0776 131.950 4 88 17.0624 132.047 90 969 330 7 325
1946317N14142 1946 68 WP MM DIANNE 1946-11-16 18:00:00 TS 17.4070 131.852 main 893 883 O________OPO__ jtwc_wp WP151946 17.4000 131.900 90 2 17.4000 131.900 TC 90 17.4280 131.709 4 87 17.4000 131.900 90 970 360 8 339
1946317N14142 1946 68 WP MM DIANNE 1946-11-16 21:00:00 TS 17.8022 131.724 main 894 894 P________PPP__ WP151946 17.7898 131.753 87 2 17.7898 131.753 TC 87 17.8394 131.638 4 86 17.7898 131.753 87 970 360 9 357
1946317N14142 1946 68 WP MM DIANNE 1946-11-17 00:00:00 TS 18.3000 131.800 main 931 931 O________OOO__ jtwc_wp WP151946 18.3000 131.800 85 2 18.3000 131.800 TC 85 18.3000 131.800 4 85 18.3000 131.800 85 971 360 12 19
1946317N14142 1946 68 WP MM DIANNE 1946-11-17 03:00:00 TS 18.9577 132.140 main 999 999 P________PPP__ WP151946 19.0144 132.100 82 1 19.0144 132.100 TC 82 18.7874 132.261 4 82 19.0144 132.100 82 972 330 16 35
1946317N14142 1946 68 WP MM DIANNE 1946-11-17 06:00:00 TS 19.6037 132.762 main 1098 1098 O________OPO__ jtwc_wp WP151946 19.7000 132.700 80 1 19.7000 132.700 TC 80 19.3148 132.950 4 80 19.7000 132.700 80 973 300 18 53
1946317N14142 1946 68 WP MM DIANNE 1946-11-17 09:00:00 TS 20.0256 133.645 main 1192 1192 P________PPP__ WP151946 20.0809 133.606 77 1 20.0809 133.606 TC 77 19.8595 133.764 4 77 20.0809 133.606 77 974 330 19 65
1946317N14142 1946 68 WP MM DIANNE 1946-11-17 12:00:00 TS 20.4000 134.600 main 1246 1217 O________OOO__ jtwc_wp WP151946 20.4000 134.600 75 1 20.4000 134.600 TC 75 20.4000 134.600 4 75 20.4000 134.600 75 975 360 18 62
1946317N14142 1946 68 WP MM DIANNE 1946-11-17 15:00:00 TS 20.8826 135.352 main 1221 1194 P________PPP__ WP151946 20.8769 135.395 72 1 20.8769 135.395 TC 72 20.8995 135.223 4 72 20.8769 135.395 72 976 420 17 53
1946317N14142 1946 68 WP MM DIANNE 1946-11-17 18:00:00 TS 21.3986 136.039 main 1194 1173 O________OPO__ jtwc_wp WP151946 21.4000 136.100 70 1 21.4000 136.100 TC 70 21.3943 135.856 4 70 21.4000 136.100 70 977 480 16 51
1946317N14142 1946 68 WP MM DIANNE 1946-11-17 21:00:00 TS 21.8800 136.659 main 1178 1164 P________PPP__ WP151946 21.8760 136.692 67 1 21.8760 136.692 TC 67 21.8921 136.561 4 67 21.8760 136.692 67 978 450 16 52
1946317N14142 1946 68 WP MM DIANNE 1946-11-18 00:00:00 TS 22.4000 137.400 main 1167 1156 O________OOO__ jtwc_wp WP151946 22.4000 137.400 65 1 22.4000 137.400 TC 65 22.4000 137.400 4 65 22.4000 137.400 65 979 420 20 55
1946317N14142 1946 68 WP MM DIANNE 1946-11-18 03:00:00 TS 23.0327 138.455 main 1170 1151 P________PPP__ WP151946 23.0652 138.459 62 0 23.0652 138.459 TC 62 22.9352 138.444 4 62 23.0652 138.459 62 980 450 24 59
1946317N14142 1946 68 WP MM DIANNE 1946-11-18 06:00:00 TS 23.6434 139.682 main 1158 1143 O________OPO__ jtwc_wp WP151946 23.7000 139.700 60 0 23.7000 139.700 TC 60 23.4738 139.627 4 60 23.7000 139.700 60 982 480 25 65
1946317N14142 1946 68 WP MM DIANNE 1946-11-18 09:00:00 TS 24.1020 140.905 main 1150 1148 P________PPP__ WP151946 24.1360 140.907 57 0 24.1360 140.907 TC 57 24.0000 140.898 4 57 24.1360 140.907 57 983 450 25 70
1946317N14142 1946 68 WP MM DIANNE 1946-11-18 12:00:00 TS 24.5000 142.200 main 1171 1166 O________OOO__ jtwc_wp WP151946 24.5000 142.200 55 0 24.5000 142.200 TC 55 24.5000 142.200 2 55 24.5000 142.200 55 984 420 26 72
1946317N14142 1946 68 WP MM DIANNE 1946-11-18 15:00:00 TS 24.9078 143.618 main 1171 1166 P________PPP__ WP151946 24.8933 143.673 52 0 24.8933 143.673 TC 52 24.9511 143.453 2 52 24.8933 143.673 52 985 420 27 72
1946317N14142 1946 68 WP MM DIANNE 1946-11-18 18:00:00 TS 25.3191 145.006 main 1177 1171 O________OPO__ jtwc_wp WP151946 25.3000 145.100 50 0 25.3000 145.100 TC 50 25.3764 144.725 2 50 25.3000 145.100 50 987 420 25 70
1946317N14142 1946 68 WP MM DIANNE 1946-11-18 21:00:00 TS 25.7517 146.165 main 1180 1180 P________PPP__ WP151946 25.7395 146.217 47 0 25.7395 146.217 TC 47 25.7884 146.010 2 47 25.7395 146.217 47 988 390 22 67
1946317N14142 1946 68 WP MM DIANNE 1946-11-19 00:00:00 TS 26.2000 147.300 main 1200 1200 O________OOO__ jtwc_wp WP151946 26.2000 147.300 45 0 26.2000 147.300 TC 45 26.2000 147.300 2 45 26.2000 147.300 45 989 360 24 68
1946317N14142 1946 68 WP MM DIANNE 1946-11-19 03:00:00 TS 26.6485 148.619 main 1236 1233 P________PPP__ WP151946 26.6576 148.628 45 0 26.6576 148.628 TC 45 26.6212 148.592 2 43 26.6576 148.628 45 990 330 26 70
1946317N14142 1946 68 WP MM DIANNE 1946-11-19 06:00:00 TS 27.0891 149.976 main 1282 1282 O________OPO__ jtwc_wp WP151946 27.1000 150.000 45 0 27.1000 150.000 TC 45 27.0492 149.888 2 42 27.1000 150.000 45 992 300 24 71
1946317N14142 1946 68 WP MM DIANNE 1946-11-19 09:00:00 TS 27.4607 151.209 main 1334 1334 P________PPP__ WP151946 27.4438 151.195 42 0 27.4438 151.195 TC 42 27.4776 151.190 2 41 27.5113 151.281 42 993 300 24 70
1946317N14142 1946 68 WP MM DIANNE 1946-11-19 12:00:00 TS 27.9000 152.500 main 1396 1396 O________OOO__ jtwc_wp WP151946 27.9000 152.500 40 0 27.9000 152.500 TC 40 27.9000 152.500 2 40 27.9000 152.500 40 994 300 28 66
1946317N14142 1946 68 WP MM DIANNE 1946-11-19 15:00:00 TS 28.6165 154.139 main 1469 1469 P________P____ WP151946 28.6165 154.139 40 0 28.6165 154.139 TC 40 2 35 62
1946317N14142 1946 68 WP MM DIANNE 1946-11-19 18:00:00 TS 29.5000 156.000 main 1569 1569 O________O____ jtwc_wp WP151946 29.5000 156.000 40 0 29.5000 156.000 TC 40 2 38 61
1946317N14142 1946 68 WP MM DIANNE 1946-11-19 21:00:00 TS 30.4487 157.963 main 1694 1694 P________P____ WP151946 30.4487 157.963 37 0 30.4487 157.963 TC 37 2 39 61
1946317N14142 1946 68 WP MM DIANNE 1946-11-20 00:00:00 TS 31.4000 160.000 main 1812 1811 O________O____ jtwc_wp WP151946 31.4000 160.000 35 0 31.4000 160.000 TC 35 39 63
1946317N14142 1946 68 WP MM DIANNE 1946-11-20 03:00:00 TS 32.2284 162.041 main 1826 1826 P________P____ WP151946 32.2284 162.041 32 -1 32.2284 162.041 TC 32 37 65
1946317N14142 1946 68 WP MM DIANNE 1946-11-20 06:00:00 TS 33.0000 164.000 main 1856 1856 O________O____ jtwc_wp WP151946 33.0000 164.000 30 -1 33.0000 164.000 TC 30 35 64
1946317N14142 1946 68 WP MM DIANNE 1946-11-20 09:00:00 TS 33.7559 165.794 main 1885 1885 P________P____ WP151946 33.7559 165.794 27 -1 33.7559 165.794 TC 27 33 63
1946317N14142 1946 68 WP MM DIANNE 1946-11-20 12:00:00 TS 34.5000 167.500 main 1930 O________O____ jtwc_wp WP151946 34.5000 167.500 25 -1 34.5000 167.500 TC 25 32 62

Digital Typhoon Data and Search

About IBTrACS Database

This database is a web-friendly format of International Best Track Archive for Climate Stewardship (IBTrACS), a global best track data archive curated by NOAA dating back to 1842.

Updated: 2021-10-21